createdAt,value
2023-02-22T00:04:41.421Z,32.8
2023-02-22T00:10:33.509Z,31
2023-02-22T00:16:26.975Z,29.8
2023-02-22T00:22:19.092Z,30.3
2023-02-22T00:28:11.169Z,32.9
2023-02-22T00:33:49.343Z,31.8
2023-02-22T00:39:26.347Z,30.4
2023-02-22T00:45:18.839Z,29.4
2023-02-22T00:50:41.169Z,29.9
2023-02-22T00:56:34.146Z,32.6
2023-02-22T01:02:27.272Z,31.9
2023-02-22T01:08:05.289Z,30.6
2023-02-22T01:13:59.250Z,29.5
2023-02-22T01:19:35.883Z,29.8
2023-02-22T01:25:30.030Z,32.5
2023-02-22T01:31:07.716Z,31.8
2023-02-22T01:36:44.455Z,30.6
2023-02-22T01:42:38.329Z,26.5
2023-02-22T01:48:15.716Z,25.4
2023-02-22T01:54:07.875Z,24.3
2023-02-22T01:59:59.740Z,25.3
2023-02-22T02:05:52.554Z,31.4
2023-02-22T02:11:45.241Z,33.4
2023-02-22T02:17:22.167Z,31.3
2023-02-22T02:22:44.441Z,27.9
2023-02-22T02:28:21.738Z,26.1
2023-02-22T02:34:14.759Z,24.8
2023-02-22T02:40:08.286Z,24.2
2023-02-22T02:45:30.359Z,28.8
2023-02-22T02:51:23.549Z,27.9
2023-02-22T02:57:16.170Z,30.3
2023-02-22T03:02:53.099Z,33.1
2023-02-22T03:08:46.948Z,31.6
2023-02-22T03:14:39.348Z,29.9
2023-02-22T03:20:32.033Z,26.3
2023-02-22T03:26:24.622Z,25
2023-02-22T03:32:17.103Z,24.3
2023-02-22T03:37:53.584Z,27.8
2023-02-22T03:43:32.032Z,31.8
2023-02-22T03:49:09.794Z,33.3
2023-02-22T03:55:02.699Z,31.4
2023-02-22T04:00:26.148Z,28
2023-02-22T04:06:19.947Z,26.2
2023-02-22T04:11:40.891Z,24.8
2023-02-22T04:17:33.676Z,24.2
2023-02-22T04:23:26.594Z,28.4
2023-02-22T04:29:17.989Z,31.9
2023-02-22T04:34:55.843Z,32.9
2023-02-22T04:40:35.044Z,31.3
2023-02-22T04:46:11.559Z,28.1
2023-02-22T04:52:06.785Z,26.1
2023-02-22T04:58:00.041Z,24.7
2023-02-22T05:03:52.612Z,24.1
2023-02-22T05:09:29.088Z,28.8
2023-02-22T05:14:51.071Z,31.9
2023-02-22T05:20:43.989Z,33.3
2023-02-22T05:26:36.519Z,31.3
2023-02-22T05:32:30.346Z,27.9
2023-02-22T05:38:24.315Z,25.9
2023-02-22T05:44:16.208Z,24.6
2023-02-22T05:49:54.703Z,24.1
2023-02-22T05:55:48.245Z,29.2
2023-02-22T06:01:41.400Z,28.3
2023-02-22T06:07:18.613Z,29.4
2023-02-22T06:13:09.913Z,32.8
2023-02-22T06:19:02.486Z,31.9
2023-02-22T06:24:40.378Z,30.5
2023-02-22T06:30:17.417Z,26.4
2023-02-22T06:35:54.934Z,25.6
2023-02-22T06:41:33.044Z,24.3
2023-02-22T06:47:10.107Z,24.4
2023-02-22T06:52:49.350Z,31.3
2023-02-22T06:58:27.035Z,33.5
2023-02-22T07:04:04.089Z,31.6
2023-02-22T07:09:44.818Z,30.3
2023-02-22T07:15:22.786Z,29.1
2023-02-22T07:21:00.752Z,32.7
2023-02-22T07:26:23.848Z,32.3
2023-02-22T07:32:18.874Z,30.9
2023-02-22T07:38:12.289Z,29.8
2023-02-22T07:44:04.847Z,31.7
2023-02-22T07:49:58.096Z,33.1
2023-02-22T07:55:50.105Z,31.1
2023-02-22T08:01:41.956Z,30
2023-02-22T08:07:35.196Z,30.6
2023-02-22T08:13:12.099Z,33.7
2023-02-22T08:19:05.873Z,31.4
2023-02-22T08:24:59.055Z,30.3
2023-02-22T08:30:56.489Z,29.4
2023-02-22T08:36:50.711Z,33.5
2023-02-22T08:42:43.734Z,31.6
2023-02-22T08:48:37.013Z,30.3
2023-02-22T08:54:30.346Z,28.2
2023-02-22T09:00:23.331Z,33.3
2023-02-22T09:06:29.462Z,31.8
2023-02-22T09:12:25.715Z,30.3
2023-02-22T09:18:19.279Z,28.7
2023-02-22T09:24:20.841Z,34
2023-02-22T09:30:20.281Z,31.6
2023-02-22T09:36:01.737Z,30.2
2023-02-22T09:41:54.921Z,29.2
2023-02-22T09:47:48.095Z,28.2
2023-02-22T09:53:42.986Z,27.2
2023-02-22T09:59:19.940Z,26.4
2023-02-22T10:05:12.809Z,25.7
2023-02-22T10:10:35.003Z,25
2023-02-22T10:15:40.910Z,24.5
2023-02-22T10:21:34.918Z,24.1
2023-02-22T10:27:12.942Z,23.6
2023-02-22T10:33:11.669Z,23.3
2023-02-22T10:39:06.506Z,22.9
2023-02-22T10:44:29.540Z,22.6
2023-02-22T10:50:08.758Z,22.4
2023-02-22T10:55:50.841Z,22.2
2023-02-22T11:01:27.917Z,22
2023-02-22T11:07:05.701Z,21.9
2023-02-22T11:12:43.897Z,21.8
2023-02-22T11:18:08.863Z,21.6
2023-02-22T11:23:46.421Z,21.5
2023-02-22T11:29:32.446Z,21.4
2023-02-22T11:35:41.620Z,21.3
2023-02-22T11:41:03.017Z,21.2
2023-02-22T11:52:44.269Z,21.1
2023-02-22T11:58:34.176Z,21
2023-02-22T12:04:20.728Z,20.9
2023-02-22T12:10:19.633Z,20.8
2023-02-22T12:16:13.533Z,20.8
2023-02-22T12:22:15.888Z,20.8
2023-02-22T12:28:05.820Z,20.8
2023-02-22T12:34:02.779Z,20.7
2023-02-22T12:39:24.814Z,20.6
2023-02-22T12:45:29.697Z,20.6
2023-02-22T12:51:23.224Z,20.5
2023-02-22T12:57:27.174Z,20.4
2023-02-22T13:02:49.441Z,20.4
2023-02-22T13:08:55.729Z,20.3
2023-02-22T13:14:49.017Z,20.3
2023-02-22T13:20:27.116Z,20.1
2023-02-22T13:26:05.387Z,20.1
2023-02-22T13:32:14.381Z,20.1
2023-02-22T13:37:52.246Z,20.1
2023-02-22T13:43:45.141Z,20
2023-02-22T13:49:41.854Z,19.9
2023-02-22T13:55:36.826Z,19.9
2023-02-22T14:01:32.772Z,19.9
2023-02-22T14:07:26.872Z,19.9
2023-02-22T14:13:07.314Z,19.8
2023-02-22T14:19:08.589Z,19.8
2023-02-22T14:25:01.845Z,19.8
2023-02-22T14:31:05.029Z,19.8
2023-02-22T14:37:29.812Z,19.8
2023-02-22T14:43:25.745Z,19.7
2023-02-22T14:49:21.942Z,19.7
2023-02-22T14:55:28.506Z,19.6
2023-02-22T15:01:06.250Z,19.6
2023-02-22T15:07:26.034Z,19.6
2023-02-22T15:13:21.221Z,19.6
2023-02-22T15:19:25.315Z,19.6
2023-02-22T15:25:20.785Z,19.6
2023-02-22T15:31:10.740Z,19.6
2023-02-22T15:37:25.860Z,19.6
2023-02-22T15:43:19.482Z,19.6
2023-02-22T15:49:22.084Z,19.7
2023-02-22T15:55:24.781Z,19.7
2023-02-22T16:01:03.094Z,19.7
2023-02-22T16:07:07.269Z,19.8
2023-02-22T16:13:01.035Z,19.7
2023-02-22T16:19:25.084Z,19.7
2023-02-22T16:25:33.562Z,19.7
2023-02-22T16:31:20.929Z,19.7
2023-02-22T16:37:02.716Z,19.8
2023-02-22T16:42:56.271Z,19.8
2023-02-22T16:48:34.456Z,19.8
2023-02-22T16:54:12.181Z,19.8
2023-02-22T16:59:50.306Z,19.8
2023-02-22T17:05:43.616Z,19.8
2023-02-22T17:11:36.130Z,19.8
2023-02-22T17:17:30.233Z,19.8
2023-02-22T17:23:07.525Z,19.8
2023-02-22T17:28:45.533Z,19.8
2023-02-22T17:34:23.060Z,19.8
2023-02-22T17:40:18.583Z,19.8
2023-02-22T17:46:11.254Z,19.8
2023-02-22T17:58:22.101Z,19.8
2023-02-22T18:04:00.274Z,19.8
2023-02-22T18:09:22.534Z,19.8
2023-02-22T18:15:00.187Z,19.8
2023-02-22T18:20:38.449Z,19.8
2023-02-22T18:26:44.087Z,19.8
2023-02-22T18:32:37.756Z,19.8
2023-02-22T18:38:31.392Z,19.8
2023-02-22T18:44:25.305Z,19.7
2023-02-22T18:50:19.498Z,19.8
2023-02-22T18:56:17.029Z,19.8
2023-02-22T19:02:10.901Z,19.7
2023-02-22T19:08:05.298Z,19.7
2023-02-22T19:13:59.353Z,19.7
2023-02-22T19:19:59.100Z,19.7
2023-02-22T19:25:52.591Z,19.7
2023-02-22T19:31:46.631Z,19.7
2023-02-22T19:37:42.030Z,19.7
2023-02-22T19:43:39.622Z,19.7
2023-02-22T19:49:33.721Z,19.7
2023-02-22T19:55:27.652Z,19.6
2023-02-22T20:01:20.974Z,19.7
2023-02-22T20:07:15.900Z,19.6
2023-02-22T20:13:08.731Z,19.6
2023-02-22T20:18:46.434Z,19.6
2023-02-22T20:24:40.870Z,19.6
2023-02-22T20:30:21.511Z,19.6
2023-02-22T20:36:17.312Z,19.6
2023-02-22T20:41:55.023Z,19.6
2023-02-22T20:47:32.419Z,19.6
2023-02-22T20:53:25.976Z,19.6
2023-02-22T20:59:21.799Z,19.6
2023-02-22T21:05:15.645Z,19.1
2023-02-22T21:11:10.765Z,28.8
2023-02-22T21:17:06.986Z,31.5
2023-02-22T21:23:00.506Z,32.8
2023-02-22T21:28:52.405Z,33.7
2023-02-22T21:34:47.441Z,32.8
2023-02-22T21:40:39.999Z,32.3
2023-02-22T21:46:33.687Z,33.8
2023-02-22T21:52:26.993Z,31.4
2023-02-22T21:58:19.539Z,31.3
2023-02-22T22:04:13.335Z,33.3
2023-02-22T22:10:06.667Z,34.4
2023-02-22T22:16:05.160Z,30.9
2023-02-22T22:21:57.689Z,32.9
2023-02-22T22:27:51.952Z,33.6
2023-02-22T22:33:44.350Z,31.3
2023-02-22T22:39:21.424Z,31.1
2023-02-22T22:44:59.759Z,33.3
2023-02-22T22:50:37.104Z,32.9
2023-02-22T22:56:31.312Z,31
2023-02-22T23:02:25.444Z,31.3
2023-02-22T23:08:19.065Z,33.5
2023-02-22T23:14:12.304Z,31.9
2023-02-22T23:20:06.150Z,30.5
2023-02-22T23:25:57.994Z,32.1
2023-02-22T23:31:35.981Z,33.9
2023-02-22T23:37:30.418Z,31.4
2023-02-22T23:43:25.164Z,28.4
2023-02-22T23:49:03.237Z,26.1
2023-02-22T23:54:41.562Z,25
